createdAt,value
2022-10-14T00:02:11.880Z,14.18
2022-10-14T00:04:39.287Z,15.73
2022-10-14T00:07:06.523Z,19.48
2022-10-14T00:09:33.749Z,15.50
2022-10-14T00:12:00.987Z,16.88
2022-10-14T00:14:28.218Z,19.65
2022-10-14T00:16:55.894Z,13.73
2022-10-14T00:19:23.356Z,16.13
2022-10-14T00:21:50.659Z,13.43
2022-10-14T00:24:18.966Z,13.45
2022-10-14T00:26:46.611Z,17.85
2022-10-14T00:29:15.074Z,13.23
2022-10-14T00:31:42.432Z,12.68
2022-10-14T00:34:13.026Z,14.20
2022-10-14T00:36:41.232Z,13.93
2022-10-14T00:39:08.656Z,13.15
2022-10-14T00:41:36.576Z,15.10
2022-10-14T00:44:05.881Z,13.40
2022-10-14T00:46:37.610Z,18.52
2022-10-14T00:49:15.780Z,12.27
2022-10-14T00:51:45.039Z,10.80
2022-10-14T00:54:13.997Z,14.32
2022-10-14T00:56:42.058Z,15.23
2022-10-14T00:59:09.376Z,13.02
2022-10-14T01:01:36.646Z,12.43
2022-10-14T01:04:04.054Z,14.80
2022-10-14T01:06:40.411Z,14.60
2022-10-14T01:09:13.249Z,10.63
2022-10-14T01:11:46.151Z,9.77
2022-10-14T01:14:16.145Z,14.70
2022-10-14T01:16:58.052Z,10.90
2022-10-14T01:19:53.857Z,8.85
2022-10-14T01:22:22.397Z,13.77
2022-10-14T01:24:49.801Z,11.80
2022-10-14T01:27:34.655Z,13.02
2022-10-14T01:30:04.884Z,10.00
2022-10-14T01:33:01.607Z,13.97
2022-10-14T01:35:28.859Z,11.27
2022-10-14T01:37:59.553Z,8.68
2022-10-14T01:40:38.118Z,14.18
2022-10-14T01:43:06.550Z,10.65
2022-10-14T01:45:35.913Z,12.52
2022-10-14T01:48:04.659Z,13.02
2022-10-14T01:50:32.626Z,12.23
2022-10-14T01:53:03.625Z,8.90
2022-10-14T01:55:33.763Z,13.65
2022-10-14T01:58:01.248Z,11.10
2022-10-14T02:00:28.488Z,12.10
2022-10-14T02:02:55.776Z,15.05
2022-10-14T02:05:27.714Z,11.13
2022-10-14T02:08:13.615Z,11.57
2022-10-14T02:10:50.556Z,13.88
2022-10-14T02:13:26.648Z,12.27
2022-10-14T02:16:16.999Z,7.72
2022-10-14T02:18:50.944Z,11.75
2022-10-14T02:21:27.683Z,13.25
2022-10-14T02:23:57.969Z,14.07
2022-10-14T02:26:25.874Z,10.83
2022-10-14T02:28:54.186Z,10.55
2022-10-14T02:31:21.850Z,10.77
2022-10-14T02:33:54.307Z,10.30
2022-10-14T02:36:23.873Z,11.57
2022-10-14T02:38:51.370Z,8.88
2022-10-14T02:41:20.531Z,14.10
2022-10-14T02:43:47.879Z,7.32
2022-10-14T02:46:15.458Z,10.85
2022-10-14T02:48:42.738Z,7.70
2022-10-14T02:51:10.002Z,11.02
2022-10-14T02:53:37.317Z,10.43
2022-10-14T02:56:04.541Z,10.02
2022-10-14T02:58:31.878Z,11.02
2022-10-14T03:00:59.125Z,10.50
2022-10-14T03:03:26.401Z,11.45
2022-10-14T03:05:53.661Z,10.43
2022-10-14T03:08:20.915Z,10.93
2022-10-14T03:10:48.305Z,9.25
2022-10-14T03:13:15.601Z,8.23
2022-10-14T03:15:43.017Z,13.75
2022-10-14T03:18:10.810Z,9.50
2022-10-14T03:20:40.391Z,12.32
2022-10-14T03:23:07.819Z,8.48
2022-10-14T03:25:35.182Z,11.40
2022-10-14T03:28:02.466Z,13.20
2022-10-14T03:30:31.987Z,7.70
2022-10-14T03:33:01.421Z,9.38
2022-10-14T03:35:28.839Z,8.75
2022-10-14T03:37:56.195Z,12.50
2022-10-14T03:40:23.696Z,7.97
2022-10-14T03:42:50.926Z,9.25
2022-10-14T03:45:18.193Z,10.20
2022-10-14T03:47:45.440Z,10.80
2022-10-14T03:50:12.727Z,8.57
2022-10-14T03:52:44.838Z,9.13
2022-10-14T03:55:13.982Z,6.95
2022-10-14T03:57:41.206Z,12.57
2022-10-14T04:00:09.402Z,8.95
2022-10-14T04:02:36.896Z,13.35
2022-10-14T04:05:04.155Z,8.48
2022-10-14T04:07:31.425Z,14.35
2022-10-14T04:09:58.677Z,7.80
2022-10-14T04:12:25.927Z,9.75
2022-10-14T04:14:56.765Z,11.38
2022-10-14T04:17:24.820Z,7.85
2022-10-14T04:19:52.352Z,8.77
2022-10-14T04:22:19.877Z,10.40
2022-10-14T04:24:47.342Z,8.73
2022-10-14T04:27:14.616Z,11.13
2022-10-14T04:29:41.878Z,14.38
2022-10-14T04:32:09.144Z,13.45
2022-10-14T04:34:36.402Z,10.90
2022-10-14T04:37:03.747Z,9.80
2022-10-14T04:39:31.045Z,11.30
2022-10-14T04:41:58.275Z,12.75
2022-10-14T04:44:25.522Z,11.77
2022-10-14T04:46:52.897Z,10.50
2022-10-14T04:49:20.155Z,6.95
2022-10-14T04:51:47.402Z,9.27
2022-10-14T04:54:14.692Z,8.73
2022-10-14T04:56:41.943Z,7.07
2022-10-14T04:59:09.282Z,11.80
2022-10-14T05:01:36.586Z,11.07
2022-10-14T05:04:03.954Z,9.63
2022-10-14T05:06:31.198Z,13.43
2022-10-14T05:08:58.555Z,11.05
2022-10-14T05:11:26.117Z,11.43
2022-10-14T05:13:53.437Z,12.32
2022-10-14T05:16:20.698Z,8.38
2022-10-14T05:18:47.978Z,9.48
2022-10-14T05:21:16.550Z,8.85
2022-10-14T05:23:43.802Z,7.40
2022-10-14T05:26:11.086Z,10.25
2022-10-14T05:28:38.710Z,10.75
2022-10-14T05:31:06.311Z,6.38
2022-10-14T05:33:33.713Z,8.70
2022-10-14T05:36:00.965Z,10.07
2022-10-14T05:38:28.226Z,8.80
2022-10-14T05:40:56.656Z,11.65
2022-10-14T05:43:32.149Z,10.70
2022-10-14T05:45:59.916Z,7.85
2022-10-14T05:48:27.235Z,11.23
2022-10-14T05:50:54.532Z,11.60
2022-10-14T05:53:21.856Z,6.90
2022-10-14T05:55:49.106Z,8.40
2022-10-14T05:58:16.395Z,10.43
2022-10-14T06:00:43.668Z,10.75
2022-10-14T06:03:13.171Z,8.88
2022-10-14T06:05:40.566Z,7.97
2022-10-14T06:08:07.828Z,7.50
2022-10-14T06:10:35.887Z,9.65
2022-10-14T06:13:03.306Z,8.10
2022-10-14T06:15:30.551Z,8.25
2022-10-14T06:17:57.765Z,16.75
2022-10-14T06:20:25.066Z,11.13
2022-10-14T06:22:52.310Z,14.30
2022-10-14T06:25:19.554Z,8.57
2022-10-14T06:27:46.814Z,11.68
2022-10-14T06:30:14.258Z,8.45
2022-10-14T06:32:41.616Z,8.85
2022-10-14T06:35:09.415Z,13.02
2022-10-14T06:37:37.153Z,12.00
2022-10-14T06:40:05.386Z,9.80
2022-10-14T06:42:34.584Z,8.10
2022-10-14T06:45:01.945Z,7.97
2022-10-14T06:47:30.352Z,5.80
2022-10-14T06:49:57.640Z,12.52
2022-10-14T06:52:25.035Z,10.40
2022-10-14T06:54:52.393Z,12.13
2022-10-14T06:57:19.655Z,12.52
2022-10-14T06:59:46.929Z,11.20
2022-10-14T07:02:14.395Z,9.10
2022-10-14T07:04:41.690Z,9.23
2022-10-14T07:07:09.195Z,10.38
2022-10-14T07:09:37.687Z,10.20
2022-10-14T07:12:04.926Z,7.22
2022-10-14T07:14:32.232Z,12.07
2022-10-14T07:17:00.530Z,10.15
2022-10-14T07:19:27.851Z,6.72
2022-10-14T07:21:55.111Z,18.30
2022-10-14T07:24:22.337Z,9.68
2022-10-14T07:26:49.644Z,8.10
2022-10-14T07:29:16.931Z,9.15
2022-10-14T07:31:44.323Z,12.45
2022-10-14T07:34:11.555Z,9.18
2022-10-14T07:36:38.794Z,7.55
2022-10-14T07:39:06.060Z,6.75
2022-10-14T07:41:33.711Z,7.18
2022-10-14T07:44:02.965Z,8.25
2022-10-14T07:46:33.070Z,11.30
2022-10-14T07:49:05.518Z,8.60
2022-10-14T07:51:33.440Z,13.20
2022-10-14T07:54:01.605Z,15.73
2022-10-14T07:56:29.108Z,10.88
2022-10-14T07:58:56.831Z,10.43
2022-10-14T08:01:24.774Z,7.47
2022-10-14T08:03:52.316Z,9.02
2022-10-14T08:06:19.605Z,9.57
2022-10-14T08:08:46.897Z,10.35
2022-10-14T08:11:16.409Z,8.00
2022-10-14T08:13:46.164Z,13.30
2022-10-14T08:16:23.868Z,7.35
2022-10-14T08:18:51.338Z,6.03
2022-10-14T08:21:19.433Z,9.50
2022-10-14T08:23:46.727Z,8.77
2022-10-14T08:26:19.767Z,8.25
2022-10-14T08:28:47.548Z,9.93
2022-10-14T08:31:14.862Z,9.10
2022-10-14T08:33:42.154Z,8.52
2022-10-14T08:36:09.553Z,13.43
2022-10-14T08:38:36.868Z,11.50
2022-10-14T08:41:09.899Z,11.20
2022-10-14T08:43:38.566Z,7.18
2022-10-14T08:46:20.845Z,9.80
2022-10-14T08:48:48.732Z,6.35
2022-10-14T08:51:17.874Z,7.05
2022-10-14T08:53:46.949Z,6.65
2022-10-14T08:56:15.170Z,10.68
2022-10-14T08:58:44.729Z,14.38
2022-10-14T09:01:15.949Z,11.95
2022-10-14T09:06:17.890Z,7.40
2022-10-14T09:08:46.478Z,13.75
2022-10-14T09:11:19.398Z,9.10
2022-10-14T09:13:49.794Z,10.15
2022-10-14T09:16:19.939Z,10.38
2022-10-14T09:18:54.733Z,13.35
2022-10-14T09:21:48.022Z,7.28
2022-10-14T09:24:38.122Z,11.77
2022-10-14T09:27:07.681Z,9.00
2022-10-14T09:29:41.131Z,8.30
2022-10-14T09:32:10.110Z,9.00
2022-10-14T09:34:41.804Z,12.25
2022-10-14T09:37:27.643Z,9.82
2022-10-14T09:39:57.394Z,7.72
2022-10-14T09:42:32.209Z,8.65
2022-10-14T09:45:09.180Z,8.35
2022-10-14T09:47:38.430Z,6.95
2022-10-14T09:50:09.008Z,8.70
2022-10-14T09:52:38.165Z,6.85
2022-10-14T09:55:06.173Z,8.77
2022-10-14T09:57:33.544Z,8.68
2022-10-14T10:00:03.647Z,6.13
2022-10-14T10:02:38.382Z,9.65
2022-10-14T10:05:22.777Z,9.55
2022-10-14T10:08:01.714Z,9.05
2022-10-14T10:10:32.032Z,6.78
2022-10-14T10:12:59.674Z,8.23
2022-10-14T10:15:27.005Z,9.85
2022-10-14T10:17:54.351Z,8.95
2022-10-14T10:20:28.638Z,7.30
2022-10-14T10:22:57.307Z,8.27
2022-10-14T10:25:26.622Z,6.93
2022-10-14T10:27:54.974Z,9.88
2022-10-14T10:30:24.846Z,7.30
2022-10-14T10:32:52.062Z,6.10
2022-10-14T10:35:48.776Z,7.05
2022-10-14T10:38:22.028Z,8.95
2022-10-14T10:40:55.391Z,10.15
2022-10-14T10:43:25.768Z,9.43
2022-10-14T10:46:02.368Z,7.20
2022-10-14T10:48:51.241Z,12.27
2022-10-14T10:51:27.841Z,10.02
2022-10-14T10:54:13.621Z,9.02
2022-10-14T10:56:47.071Z,9.38
2022-10-14T10:59:35.473Z,8.43
2022-10-14T11:02:05.791Z,7.80
2022-10-14T11:04:34.269Z,8.00
2022-10-14T11:07:37.399Z,7.57
2022-10-14T11:10:43.439Z,9.48
2022-10-14T11:13:32.271Z,8.55
2022-10-14T11:16:03.480Z,8.52
2022-10-14T11:18:36.830Z,14.30
2022-10-14T11:21:13.136Z,7.82
2022-10-14T11:24:00.060Z,6.72
2022-10-14T11:26:47.627Z,10.82
2022-10-14T11:29:16.210Z,7.85
2022-10-14T11:31:51.044Z,9.88
2022-10-14T11:34:24.331Z,8.07
2022-10-14T11:37:05.381Z,10.07
2022-10-14T11:39:51.408Z,10.68
2022-10-14T11:42:33.695Z,8.88
2022-10-14T11:45:10.277Z,12.38
2022-10-14T11:47:39.342Z,13.55
2022-10-14T11:50:16.153Z,9.50
2022-10-14T11:52:49.536Z,8.98
2022-10-14T11:55:24.404Z,9.27
2022-10-14T11:57:58.370Z,10.18
2022-10-14T12:00:46.713Z,8.32
2022-10-14T12:03:14.060Z,15.05
2022-10-14T12:05:41.344Z,7.82
2022-10-14T12:08:14.968Z,9.02
2022-10-14T12:10:47.295Z,9.52
2022-10-14T12:13:16.589Z,13.00
2022-10-14T12:15:47.939Z,11.15
2022-10-14T12:18:15.257Z,13.80
2022-10-14T12:20:44.884Z,11.85
2022-10-14T12:23:15.379Z,11.05
2022-10-14T12:25:47.770Z,8.82
2022-10-14T12:28:15.967Z,16.83
2022-10-14T12:30:43.647Z,12.40
2022-10-14T12:33:22.389Z,14.18
2022-10-14T12:35:59.444Z,11.38
2022-10-14T12:38:28.096Z,12.20
2022-10-14T12:40:55.891Z,13.57
2022-10-14T12:43:23.687Z,21.70
2022-10-14T12:46:14.193Z,15.95
2022-10-14T12:48:50.397Z,12.73
2022-10-14T12:51:22.952Z,8.50
2022-10-14T12:53:59.514Z,13.57
2022-10-14T12:56:31.773Z,10.93
2022-10-14T12:59:01.370Z,15.95
2022-10-14T13:01:31.051Z,14.27
2022-10-14T13:04:07.362Z,14.98
2022-10-14T13:06:43.873Z,16.05
2022-10-14T13:09:17.087Z,10.73
2022-10-14T13:12:07.050Z,14.48
2022-10-14T13:14:54.216Z,13.70
2022-10-14T13:17:40.197Z,11.70
2022-10-14T13:20:27.411Z,13.88
2022-10-14T13:22:56.570Z,13.30
2022-10-14T13:25:28.258Z,8.23
2022-10-14T13:27:59.045Z,14.90
2022-10-14T13:30:30.322Z,6.85
2022-10-14T13:33:02.509Z,13.15
2022-10-14T13:35:34.670Z,10.57
2022-10-14T13:38:01.883Z,14.57
2022-10-14T13:40:30.192Z,13.25
2022-10-14T13:42:58.586Z,11.20
2022-10-14T13:45:43.648Z,15.23
2022-10-14T13:48:14.701Z,13.52
2022-10-14T13:50:42.803Z,15.18
2022-10-14T13:53:18.032Z,11.18
2022-10-14T13:55:50.361Z,12.50
2022-10-14T13:58:22.665Z,13.23
2022-10-14T14:00:57.954Z,12.98
2022-10-14T14:03:33.041Z,15.02
2022-10-14T14:06:00.393Z,11.07
2022-10-14T14:08:41.181Z,14.05
2022-10-14T14:11:18.527Z,12.60
2022-10-14T14:13:53.416Z,11.88
2022-10-14T14:16:23.723Z,14.57
2022-10-14T14:19:07.975Z,18.52
2022-10-14T14:21:36.414Z,12.95
2022-10-14T14:24:07.221Z,13.00
2022-10-14T14:26:35.506Z,12.35
2022-10-14T14:29:15.459Z,15.55
2022-10-14T14:34:30.946Z,11.95
2022-10-14T14:37:06.087Z,19.08
2022-10-14T14:39:55.642Z,16.33
2022-10-14T14:42:24.318Z,12.45
2022-10-14T14:44:52.030Z,16.05
2022-10-14T14:47:19.685Z,12.23
2022-10-14T14:49:47.325Z,13.35
2022-10-14T14:52:14.968Z,16.98
2022-10-14T14:54:46.957Z,18.27
2022-10-14T14:57:19.691Z,20.10
2022-10-14T15:00:00.927Z,17.98
2022-10-14T15:02:28.763Z,15.70
2022-10-14T15:05:06.989Z,18.27
2022-10-14T15:07:35.386Z,14.23
2022-10-14T15:10:04.993Z,17.90
2022-10-14T15:12:39.387Z,16.67
2022-10-14T15:15:07.464Z,14.95
2022-10-14T15:17:39.602Z,14.50
2022-10-14T15:22:44.836Z,20.17
2022-10-14T15:25:13.748Z,15.88
2022-10-14T15:27:46.776Z,16.67
2022-10-14T15:30:18.305Z,15.88
2022-10-14T15:32:45.581Z,15.80
2022-10-14T15:35:17.205Z,18.95
2022-10-14T15:37:44.723Z,10.90
2022-10-14T15:40:16.114Z,17.77
2022-10-14T15:42:43.332Z,22.20
2022-10-14T15:45:10.819Z,19.92
2022-10-14T15:47:38.675Z,22.13
2022-10-14T15:50:07.649Z,18.40
2022-10-14T15:52:35.015Z,21.70
2022-10-14T15:55:02.372Z,22.98
2022-10-14T15:57:29.643Z,19.67
2022-10-14T15:59:56.970Z,30.52
2022-10-14T16:02:26.211Z,26.20
2022-10-14T16:05:18.918Z,26.20
2022-10-14T16:07:41.501Z,17.63
2022-10-14T16:10:09.648Z,29.88
2022-10-14T16:12:36.888Z,25.05
2022-10-14T16:17:36.611Z,19.75
2022-10-14T16:20:03.891Z,22.83
2022-10-14T16:22:31.139Z,20.30
2022-10-14T16:24:58.383Z,21.13
2022-10-14T16:27:25.641Z,20.55
2022-10-14T16:29:53.024Z,21.60
2022-10-14T16:32:20.247Z,21.45
2022-10-14T16:34:47.511Z,17.92
2022-10-14T16:37:14.749Z,17.08
2022-10-14T16:39:41.963Z,19.65
2022-10-14T16:42:09.712Z,22.30
2022-10-14T16:44:37.056Z,23.30
2022-10-14T16:47:16.450Z,20.13
2022-10-14T16:49:44.769Z,24.85
2022-10-14T16:52:12.087Z,21.05
2022-10-14T16:54:39.342Z,20.70
2022-10-14T16:57:07.102Z,26.42
2022-10-14T16:59:34.463Z,23.10
2022-10-14T17:02:02.037Z,23.80
2022-10-14T17:04:29.359Z,21.33
2022-10-14T17:06:57.133Z,23.67
2022-10-14T17:11:52.617Z,28.98
2022-10-14T17:14:23.075Z,25.25
2022-10-14T17:16:52.568Z,29.15
2022-10-14T17:19:20.348Z,23.75
2022-10-14T17:21:48.829Z,26.33
2022-10-14T17:24:17.167Z,23.00
2022-10-14T17:26:45.304Z,21.10
2022-10-14T17:29:12.702Z,22.52
2022-10-14T17:31:40.027Z,24.70
2022-10-14T17:34:07.308Z,25.42
2022-10-14T17:36:34.692Z,25.15
2022-10-14T17:39:02.142Z,25.63
2022-10-14T17:41:30.698Z,26.27
2022-10-14T17:44:00.060Z,26.85
2022-10-14T17:46:29.309Z,26.63
2022-10-14T17:48:57.582Z,23.90
2022-10-14T17:51:25.801Z,22.05
2022-10-14T17:53:54.192Z,21.48
2022-10-14T17:56:21.803Z,21.83
2022-10-14T17:58:52.212Z,22.27
2022-10-14T18:01:31.696Z,20.85
2022-10-14T18:04:04.947Z,22.00
2022-10-14T18:06:33.393Z,25.75
2022-10-14T18:09:01.830Z,28.30
2022-10-14T18:11:49.754Z,23.35
2022-10-14T18:14:19.495Z,23.65
2022-10-14T18:16:47.817Z,28.92
2022-10-14T18:19:16.741Z,29.13
2022-10-14T18:21:44.638Z,23.88
2022-10-14T18:24:12.534Z,21.63
2022-10-14T18:26:41.062Z,29.30
2022-10-14T18:29:08.922Z,23.23
2022-10-14T18:31:36.253Z,28.48
2022-10-14T18:34:03.601Z,27.08
2022-10-14T18:36:33.219Z,25.20
2022-10-14T18:39:01.686Z,28.80
2022-10-14T18:41:29.981Z,28.17
2022-10-14T18:44:00.250Z,31.17
2022-10-14T18:46:28.840Z,30.60
2022-10-14T18:48:56.940Z,27.23
2022-10-14T18:51:25.968Z,31.58
2022-10-14T18:53:55.240Z,23.92
2022-10-14T18:56:24.216Z,24.58
2022-10-14T18:59:02.000Z,34.08
2022-10-14T19:01:30.156Z,27.95
2022-10-14T19:03:57.758Z,29.27
2022-10-14T19:06:25.177Z,29.27
2022-10-14T19:08:52.711Z,31.10
2022-10-14T19:11:21.633Z,29.90
2022-10-14T19:13:50.234Z,32.38
2022-10-14T19:16:19.020Z,33.58
2022-10-14T19:18:46.267Z,29.10
2022-10-14T19:21:14.957Z,31.40
2022-10-14T19:23:45.143Z,33.42
2022-10-14T19:28:53.411Z,30.27
2022-10-14T19:31:22.081Z,32.47
2022-10-14T19:33:49.624Z,29.05
2022-10-14T19:36:17.873Z,30.48
2022-10-14T19:38:46.554Z,32.35
2022-10-14T19:41:13.857Z,27.48
2022-10-14T19:43:41.207Z,36.20
2022-10-14T19:46:09.431Z,31.48
2022-10-14T19:48:37.085Z,26.75
2022-10-14T19:51:07.121Z,34.78
2022-10-14T19:53:34.807Z,27.40
2022-10-14T19:56:05.925Z,26.50
2022-10-14T20:01:07.871Z,29.00
2022-10-14T20:03:35.518Z,28.38
2022-10-14T20:06:03.292Z,36.90
2022-10-14T20:08:30.689Z,30.67
2022-10-14T20:10:57.925Z,33.97
2022-10-14T20:13:25.198Z,26.20
2022-10-14T20:15:55.779Z,31.25
2022-10-14T20:18:23.385Z,31.70
2022-10-14T20:20:50.679Z,24.83
2022-10-14T20:23:18.435Z,29.00
2022-10-14T20:25:45.882Z,27.45
2022-10-14T20:28:13.306Z,23.90
2022-10-14T20:30:41.538Z,29.35
2022-10-14T20:33:09.390Z,32.65
2022-10-14T20:35:37.158Z,27.17
2022-10-14T20:38:04.887Z,25.10
2022-10-14T20:40:34.252Z,26.85
2022-10-14T20:43:01.494Z,22.10
2022-10-14T20:45:28.841Z,25.95
2022-10-14T20:47:56.114Z,26.98
2022-10-14T20:50:23.546Z,26.08
2022-10-14T20:52:50.870Z,27.02
2022-10-14T20:55:18.175Z,23.58
2022-10-14T20:57:46.296Z,27.27
2022-10-14T21:00:13.866Z,27.60
2022-10-14T21:02:41.112Z,30.45
2022-10-14T21:05:08.544Z,29.80
2022-10-14T21:07:35.830Z,26.65
2022-10-14T21:10:03.095Z,27.67
2022-10-14T21:12:30.402Z,24.95
2022-10-14T21:14:57.658Z,30.42
2022-10-14T21:17:24.965Z,24.48
2022-10-14T21:19:52.274Z,26.75
2022-10-14T21:22:19.583Z,30.58
2022-10-14T21:24:46.867Z,25.80
2022-10-14T21:27:14.136Z,29.83
2022-10-14T21:29:41.377Z,26.80
2022-10-14T21:32:08.696Z,31.20
2022-10-14T21:34:35.972Z,27.35
2022-10-14T21:37:03.257Z,25.52
2022-10-14T21:39:30.553Z,27.33
2022-10-14T21:41:57.811Z,24.42
2022-10-14T21:44:25.073Z,20.30
2022-10-14T21:46:52.298Z,26.10
2022-10-14T21:49:19.606Z,30.20
2022-10-14T21:51:46.914Z,23.20
2022-10-14T21:54:14.672Z,26.48
2022-10-14T21:56:42.113Z,27.42
2022-10-14T21:59:10.209Z,25.95
2022-10-14T22:01:37.608Z,28.60
2022-10-14T22:04:06.034Z,25.00
2022-10-14T22:06:34.926Z,26.63
2022-10-14T22:09:03.326Z,24.60
2022-10-14T22:11:32.532Z,25.05
2022-10-14T22:14:00.636Z,21.17
2022-10-14T22:16:29.296Z,25.30
2022-10-14T22:18:58.524Z,34.75
2022-10-14T22:21:27.023Z,25.98
2022-10-14T22:23:54.548Z,24.85
2022-10-14T22:26:23.870Z,23.20
2022-10-14T22:28:51.574Z,23.02
2022-10-14T22:31:20.180Z,24.55
2022-10-14T22:33:47.599Z,26.05
2022-10-14T22:36:19.465Z,23.55
2022-10-14T22:38:50.409Z,28.38
2022-10-14T22:41:18.515Z,23.33
2022-10-14T22:43:49.922Z,22.60
2022-10-14T22:46:20.179Z,28.70
2022-10-14T22:48:47.956Z,25.70
2022-10-14T22:51:16.586Z,21.33
2022-10-14T22:53:44.642Z,20.25
2022-10-14T22:56:13.064Z,19.42
2022-10-14T22:58:40.338Z,20.38
2022-10-14T23:01:15.115Z,20.75
2022-10-14T23:03:42.911Z,23.67
2022-10-14T23:06:11.700Z,24.95
2022-10-14T23:08:39.628Z,23.45
2022-10-14T23:11:07.368Z,23.20
2022-10-14T23:13:34.804Z,24.25
2022-10-14T23:16:06.210Z,22.38
2022-10-14T23:18:35.075Z,23.40
2022-10-14T23:21:28.656Z,20.17
2022-10-14T23:23:59.859Z,20.20
2022-10-14T23:28:56.073Z,18.27
2022-10-14T23:31:24.236Z,22.67
2022-10-14T23:33:52.550Z,18.02
2022-10-14T23:36:20.914Z,23.67
2022-10-14T23:38:48.212Z,26.08
2022-10-14T23:41:15.461Z,20.25
2022-10-14T23:43:42.810Z,18.38
2022-10-14T23:46:10.173Z,19.02
2022-10-14T23:48:37.746Z,25.90
2022-10-14T23:51:05.296Z,22.77
2022-10-14T23:53:32.547Z,20.48
2022-10-14T23:56:00.328Z,20.95
2022-10-14T23:58:29.706Z,21.33
